sensor_id;sensor_type;location;lat;lon;timestamp;temperature;humidity
24678;DHT22;12800;53.094;8.778;2023-01-30T00:01:43;6.00;87.20
24678;DHT22;12800;53.094;8.778;2023-01-30T00:04:10;6.00;87.30
24678;DHT22;12800;53.094;8.778;2023-01-30T00:06:40;6.00;87.30
24678;DHT22;12800;53.094;8.778;2023-01-30T00:09:06;6.00;87.40
24678;DHT22;12800;53.094;8.778;2023-01-30T00:11:34;6.00;87.50
24678;DHT22;12800;53.094;8.778;2023-01-30T00:13:59;6.00;87.60
24678;DHT22;12800;53.094;8.778;2023-01-30T00:16:27;6.00;87.80
24678;DHT22;12800;53.094;8.778;2023-01-30T00:18:53;6.00;87.80
24678;DHT22;12800;53.094;8.778;2023-01-30T00:21:19;5.90;87.90
24678;DHT22;12800;53.094;8.778;2023-01-30T00:23:45;5.90;88.10
24678;DHT22;12800;53.094;8.778;2023-01-30T00:26:11;6.00;88.40
24678;DHT22;12800;53.094;8.778;2023-01-30T00:28:37;6.00;88.50
24678;DHT22;12800;53.094;8.778;2023-01-30T00:31:04;6.00;88.50
24678;DHT22;12800;53.094;8.778;2023-01-30T00:33:30;6.00;88.70
24678;DHT22;12800;53.094;8.778;2023-01-30T00:35:56;6.00;88.80
24678;DHT22;12800;53.094;8.778;2023-01-30T00:38:23;6.00;88.90
24678;DHT22;12800;53.094;8.778;2023-01-30T00:40:49;6.00;88.90
24678;DHT22;12800;53.094;8.778;2023-01-30T00:43:16;6.00;89.00
24678;DHT22;12800;53.094;8.778;2023-01-30T00:46:02;6.10;89.20
24678;DHT22;12800;53.094;8.778;2023-01-30T00:48:48;6.00;89.30
24678;DHT22;12800;53.094;8.778;2023-01-30T00:51:14;6.10;89.40
24678;DHT22;12800;53.094;8.778;2023-01-30T00:53:39;6.10;89.50
24678;DHT22;12800;53.094;8.778;2023-01-30T00:56:05;6.10;89.50
24678;DHT22;12800;53.094;8.778;2023-01-30T00:58:31;6.20;89.60
24678;DHT22;12800;53.094;8.778;2023-01-30T01:00:58;6.20;89.70
24678;DHT22;12800;53.094;8.778;2023-01-30T01:03:23;6.20;89.80
24678;DHT22;12800;53.094;8.778;2023-01-30T01:05:49;6.20;89.90
24678;DHT22;12800;53.094;8.778;2023-01-30T01:08:14;6.20;89.80
24678;DHT22;12800;53.094;8.778;2023-01-30T01:10:40;6.20;89.90
24678;DHT22;12800;53.094;8.778;2023-01-30T01:13:06;6.20;90.00
24678;DHT22;12800;53.094;8.778;2023-01-30T01:15:32;6.30;90.00
24678;DHT22;12800;53.094;8.778;2023-01-30T01:17:58;6.30;90.00
24678;DHT22;12800;53.094;8.778;2023-01-30T01:20:23;6.40;90.10
24678;DHT22;12800;53.094;8.778;2023-01-30T01:22:53;6.40;90.10
24678;DHT22;12800;53.094;8.778;2023-01-30T01:25:19;6.40;90.10
24678;DHT22;12800;53.094;8.778;2023-01-30T01:27:45;6.40;90.10
24678;DHT22;12800;53.094;8.778;2023-01-30T01:30:11;6.40;90.10
24678;DHT22;12800;53.094;8.778;2023-01-30T01:32:37;6.50;90.10
24678;DHT22;12800;53.094;8.778;2023-01-30T01:35:03;6.50;90.20
24678;DHT22;12800;53.094;8.778;2023-01-30T01:37:30;6.50;90.20
24678;DHT22;12800;53.094;8.778;2023-01-30T01:39:56;6.50;90.20
24678;DHT22;12800;53.094;8.778;2023-01-30T01:42:40;6.50;90.20
24678;DHT22;12800;53.094;8.778;2023-01-30T01:47:50;6.60;90.30
24678;DHT22;12800;53.094;8.778;2023-01-30T01:50:24;6.60;90.20
24678;DHT22;12800;53.094;8.778;2023-01-30T01:52:53;6.60;90.20
24678;DHT22;12800;53.094;8.778;2023-01-30T01:55:22;6.70;90.30
24678;DHT22;12800;53.094;8.778;2023-01-30T01:58:02;6.70;90.30
24678;DHT22;12800;53.094;8.778;2023-01-30T02:00:30;6.70;90.30
24678;DHT22;12800;53.094;8.778;2023-01-30T02:02:59;6.70;90.30
24678;DHT22;12800;53.094;8.778;2023-01-30T02:05:31;6.70;90.40
24678;DHT22;12800;53.094;8.778;2023-01-30T02:08:13;6.70;90.40
24678;DHT22;12800;53.094;8.778;2023-01-30T02:10:47;6.70;90.50
24678;DHT22;12800;53.094;8.778;2023-01-30T02:13:16;6.80;90.60
24678;DHT22;12800;53.094;8.778;2023-01-30T02:15:42;6.80;90.70
24678;DHT22;12800;53.094;8.778;2023-01-30T02:18:08;6.80;90.70
24678;DHT22;12800;53.094;8.778;2023-01-30T02:32:03;6.80;90.90
24678;DHT22;12800;53.094;8.778;2023-01-30T02:48:17;6.90;91.10
24678;DHT22;12800;53.094;8.778;2023-01-30T02:50:54;6.90;91.20
24678;DHT22;12800;53.094;8.778;2023-01-30T02:53:22;6.90;91.20
24678;DHT22;12800;53.094;8.778;2023-01-30T02:55:48;7.00;91.30
24678;DHT22;12800;53.094;8.778;2023-01-30T02:58:15;7.00;91.30
24678;DHT22;12800;53.094;8.778;2023-01-30T03:03:26;7.00;91.30
24678;DHT22;12800;53.094;8.778;2023-01-30T03:06:16;6.90;91.20
24678;DHT22;12800;53.094;8.778;2023-01-30T03:14:46;6.90;91.30
24678;DHT22;12800;53.094;8.778;2023-01-30T03:17:14;6.90;91.40
24678;DHT22;12800;53.094;8.778;2023-01-30T03:19:41;7.00;91.50
24678;DHT22;12800;53.094;8.778;2023-01-30T03:22:08;7.00;91.50
24678;DHT22;12800;53.094;8.778;2023-01-30T03:24:34;7.00;91.60
24678;DHT22;12800;53.094;8.778;2023-01-30T03:27:07;7.00;91.50
24678;DHT22;12800;53.094;8.778;2023-01-30T03:29:33;7.00;91.60
24678;DHT22;12800;53.094;8.778;2023-01-30T03:31:59;7.00;91.60
24678;DHT22;12800;53.094;8.778;2023-01-30T03:34:24;7.00;91.60
24678;DHT22;12800;53.094;8.778;2023-01-30T03:36:50;7.00;91.60
24678;DHT22;12800;53.094;8.778;2023-01-30T03:39:16;7.00;91.60
24678;DHT22;12800;53.094;8.778;2023-01-30T03:41:41;7.00;91.70
24678;DHT22;12800;53.094;8.778;2023-01-30T03:44:07;7.00;91.70
24678;DHT22;12800;53.094;8.778;2023-01-30T03:46:33;7.00;91.80
24678;DHT22;12800;53.094;8.778;2023-01-30T03:48:58;7.10;91.80
24678;DHT22;12800;53.094;8.778;2023-01-30T03:51:24;7.10;91.80
24678;DHT22;12800;53.094;8.778;2023-01-30T03:53:49;7.10;91.80
24678;DHT22;12800;53.094;8.778;2023-01-30T03:56:15;7.10;91.90
24678;DHT22;12800;53.094;8.778;2023-01-30T03:58:40;7.10;91.90
24678;DHT22;12800;53.094;8.778;2023-01-30T04:01:06;7.10;91.90
24678;DHT22;12800;53.094;8.778;2023-01-30T04:03:32;7.20;92.00
24678;DHT22;12800;53.094;8.778;2023-01-30T04:05:58;7.20;92.00
24678;DHT22;12800;53.094;8.778;2023-01-30T04:08:24;7.20;92.00
24678;DHT22;12800;53.094;8.778;2023-01-30T04:10:49;7.20;92.10
24678;DHT22;12800;53.094;8.778;2023-01-30T04:13:15;7.20;92.10
24678;DHT22;12800;53.094;8.778;2023-01-30T04:15:41;7.20;92.20
24678;DHT22;12800;53.094;8.778;2023-01-30T04:18:06;7.20;92.30
24678;DHT22;12800;53.094;8.778;2023-01-30T04:20:32;7.30;92.40
24678;DHT22;12800;53.094;8.778;2023-01-30T04:22:57;7.30;92.40
24678;DHT22;12800;53.094;8.778;2023-01-30T04:25:23;7.30;92.40
24678;DHT22;12800;53.094;8.778;2023-01-30T04:27:49;7.30;92.40
24678;DHT22;12800;53.094;8.778;2023-01-30T04:30:15;7.30;92.50
24678;DHT22;12800;53.094;8.778;2023-01-30T04:32:40;7.30;92.50
24678;DHT22;12800;53.094;8.778;2023-01-30T04:35:06;7.30;92.40
24678;DHT22;12800;53.094;8.778;2023-01-30T04:37:32;7.30;92.30
24678;DHT22;12800;53.094;8.778;2023-01-30T04:39:57;7.30;92.20
24678;DHT22;12800;53.094;8.778;2023-01-30T04:42:23;7.30;92.10
24678;DHT22;12800;53.094;8.778;2023-01-30T04:44:49;7.30;92.00
24678;DHT22;12800;53.094;8.778;2023-01-30T04:47:15;7.30;92.00
24678;DHT22;12800;53.094;8.778;2023-01-30T04:49:41;7.20;92.30
24678;DHT22;12800;53.094;8.778;2023-01-30T04:52:06;7.20;91.90
24678;DHT22;12800;53.094;8.778;2023-01-30T04:54:32;7.20;91.90
24678;DHT22;12800;53.094;8.778;2023-01-30T04:56:57;7.20;91.90
24678;DHT22;12800;53.094;8.778;2023-01-30T04:59:23;7.20;91.90
24678;DHT22;12800;53.094;8.778;2023-01-30T05:01:49;7.20;91.90
24678;DHT22;12800;53.094;8.778;2023-01-30T05:04:14;7.20;91.90
24678;DHT22;12800;53.094;8.778;2023-01-30T05:06:40;7.20;91.90
24678;DHT22;12800;53.094;8.778;2023-01-30T05:09:05;7.20;91.90
24678;DHT22;12800;53.094;8.778;2023-01-30T05:11:31;7.10;91.90
24678;DHT22;12800;53.094;8.778;2023-01-30T05:13:57;7.20;91.90
24678;DHT22;12800;53.094;8.778;2023-01-30T05:16:24;7.20;91.90
24678;DHT22;12800;53.094;8.778;2023-01-30T05:18:50;7.20;91.90
24678;DHT22;12800;53.094;8.778;2023-01-30T05:21:24;7.20;91.80
24678;DHT22;12800;53.094;8.778;2023-01-30T05:23:51;7.20;91.80
24678;DHT22;12800;53.094;8.778;2023-01-30T05:26:17;7.20;91.80
24678;DHT22;12800;53.094;8.778;2023-01-30T05:28:43;7.20;91.70
24678;DHT22;12800;53.094;8.778;2023-01-30T05:31:10;7.30;91.70
24678;DHT22;12800;53.094;8.778;2023-01-30T05:33:37;7.30;91.70
24678;DHT22;12800;53.094;8.778;2023-01-30T05:36:04;7.30;91.70
24678;DHT22;12800;53.094;8.778;2023-01-30T05:38:29;7.30;91.60
24678;DHT22;12800;53.094;8.778;2023-01-30T05:41:03;7.40;91.50
24678;DHT22;12800;53.094;8.778;2023-01-30T05:43:29;7.40;91.40
24678;DHT22;12800;53.094;8.778;2023-01-30T05:45:57;7.40;91.20
24678;DHT22;12800;53.094;8.778;2023-01-30T05:48:23;7.40;91.10
24678;DHT22;12800;53.094;8.778;2023-01-30T05:50:50;7.40;91.10
24678;DHT22;12800;53.094;8.778;2023-01-30T05:53:17;7.40;91.00
24678;DHT22;12800;53.094;8.778;2023-01-30T05:55:42;7.40;90.90
24678;DHT22;12800;53.094;8.778;2023-01-30T05:58:09;7.40;90.70
24678;DHT22;12800;53.094;8.778;2023-01-30T06:00:35;7.40;90.60
24678;DHT22;12800;53.094;8.778;2023-01-30T06:03:00;7.40;90.50
24678;DHT22;12800;53.094;8.778;2023-01-30T06:05:26;7.30;90.40
24678;DHT22;12800;53.094;8.778;2023-01-30T06:07:51;7.30;90.30
24678;DHT22;12800;53.094;8.778;2023-01-30T06:10:17;7.30;90.30
24678;DHT22;12800;53.094;8.778;2023-01-30T06:12:42;7.20;90.30
24678;DHT22;12800;53.094;8.778;2023-01-30T06:15:08;7.20;90.30
24678;DHT22;12800;53.094;8.778;2023-01-30T06:17:34;7.20;90.30
24678;DHT22;12800;53.094;8.778;2023-01-30T06:20:00;7.20;90.30
24678;DHT22;12800;53.094;8.778;2023-01-30T06:22:25;7.20;90.30
24678;DHT22;12800;53.094;8.778;2023-01-30T06:24:51;7.20;90.30
24678;DHT22;12800;53.094;8.778;2023-01-30T06:27:16;7.10;90.20
24678;DHT22;12800;53.094;8.778;2023-01-30T06:29:43;7.20;90.30
24678;DHT22;12800;53.094;8.778;2023-01-30T06:32:09;7.20;90.10
24678;DHT22;12800;53.094;8.778;2023-01-30T06:34:35;7.20;90.10
24678;DHT22;12800;53.094;8.778;2023-01-30T06:37:00;7.20;90.00
24678;DHT22;12800;53.094;8.778;2023-01-30T06:39:26;7.20;89.80
24678;DHT22;12800;53.094;8.778;2023-01-30T06:41:51;7.20;89.70
24678;DHT22;12800;53.094;8.778;2023-01-30T06:44:17;7.10;90.10
24678;DHT22;12800;53.094;8.778;2023-01-30T06:46:43;7.10;89.30
24678;DHT22;12800;53.094;8.778;2023-01-30T06:49:08;7.10;89.30
24678;DHT22;12800;53.094;8.778;2023-01-30T06:51:34;7.10;89.20
24678;DHT22;12800;53.094;8.778;2023-01-30T06:53:59;7.00;89.10
24678;DHT22;12800;53.094;8.778;2023-01-30T06:56:25;7.00;89.00
24678;DHT22;12800;53.094;8.778;2023-01-30T06:58:51;7.00;88.80
24678;DHT22;12800;53.094;8.778;2023-01-30T07:01:16;7.00;88.70
24678;DHT22;12800;53.094;8.778;2023-01-30T07:03:43;7.00;88.60
24678;DHT22;12800;53.094;8.778;2023-01-30T07:06:08;7.00;88.60
24678;DHT22;12800;53.094;8.778;2023-01-30T07:08:34;7.00;88.50
24678;DHT22;12800;53.094;8.778;2023-01-30T07:11:00;7.00;88.30
24678;DHT22;12800;53.094;8.778;2023-01-30T07:13:25;6.90;88.10
24678;DHT22;12800;53.094;8.778;2023-01-30T07:15:51;6.90;88.00
24678;DHT22;12800;53.094;8.778;2023-01-30T07:18:16;6.90;88.00
24678;DHT22;12800;53.094;8.778;2023-01-30T07:20:46;6.90;87.90
24678;DHT22;12800;53.094;8.778;2023-01-30T07:23:12;6.90;87.70
24678;DHT22;12800;53.094;8.778;2023-01-30T07:25:37;6.90;87.80
24678;DHT22;12800;53.094;8.778;2023-01-30T07:28:03;6.90;87.70
24678;DHT22;12800;53.094;8.778;2023-01-30T07:30:31;7.00;87.50
24678;DHT22;12800;53.094;8.778;2023-01-30T07:32:58;7.00;87.40
24678;DHT22;12800;53.094;8.778;2023-01-30T07:35:25;7.00;87.10
24678;DHT22;12800;53.094;8.778;2023-01-30T07:37:51;7.00;87.00
24678;DHT22;12800;53.094;8.778;2023-01-30T07:40:18;7.00;86.90
24678;DHT22;12800;53.094;8.778;2023-01-30T07:42:50;7.00;86.80
24678;DHT22;12800;53.094;8.778;2023-01-30T07:45:19;7.10;86.60
24678;DHT22;12800;53.094;8.778;2023-01-30T07:47:45;7.10;86.50
24678;DHT22;12800;53.094;8.778;2023-01-30T07:50:10;7.10;86.40
24678;DHT22;12800;53.094;8.778;2023-01-30T07:52:36;7.10;86.40
24678;DHT22;12800;53.094;8.778;2023-01-30T07:55:03;7.10;87.10
24678;DHT22;12800;53.094;8.778;2023-01-30T07:57:28;7.20;86.10
24678;DHT22;12800;53.094;8.778;2023-01-30T07:59:54;7.10;86.10
24678;DHT22;12800;53.094;8.778;2023-01-30T08:02:19;7.20;85.90
24678;DHT22;12800;53.094;8.778;2023-01-30T08:04:45;7.20;85.90
24678;DHT22;12800;53.094;8.778;2023-01-30T08:07:11;7.20;85.80
24678;DHT22;12800;53.094;8.778;2023-01-30T08:09:36;7.20;85.70
24678;DHT22;12800;53.094;8.778;2023-01-30T08:12:02;7.30;85.80
24678;DHT22;12800;53.094;8.778;2023-01-30T08:14:28;7.30;85.70
24678;DHT22;12800;53.094;8.778;2023-01-30T08:16:55;7.30;85.80
24678;DHT22;12800;53.094;8.778;2023-01-30T08:19:21;7.30;85.70
24678;DHT22;12800;53.094;8.778;2023-01-30T08:21:47;7.30;85.70
24678;DHT22;12800;53.094;8.778;2023-01-30T08:24:12;7.30;85.50
24678;DHT22;12800;53.094;8.778;2023-01-30T08:26:38;7.30;85.50
24678;DHT22;12800;53.094;8.778;2023-01-30T08:29:04;7.30;85.40
24678;DHT22;12800;53.094;8.778;2023-01-30T08:31:29;7.30;85.30
24678;DHT22;12800;53.094;8.778;2023-01-30T08:33:55;7.40;85.10
24678;DHT22;12800;53.094;8.778;2023-01-30T08:36:20;7.40;85.00
24678;DHT22;12800;53.094;8.778;2023-01-30T08:38:46;7.40;85.20
24678;DHT22;12800;53.094;8.778;2023-01-30T08:41:11;7.40;84.90
24678;DHT22;12800;53.094;8.778;2023-01-30T08:43:37;7.50;85.00
24678;DHT22;12800;53.094;8.778;2023-01-30T08:46:03;7.50;84.80
24678;DHT22;12800;53.094;8.778;2023-01-30T08:48:28;7.50;84.90
24678;DHT22;12800;53.094;8.778;2023-01-30T08:50:55;7.50;84.90
24678;DHT22;12800;53.094;8.778;2023-01-30T08:53:21;7.50;84.80
24678;DHT22;12800;53.094;8.778;2023-01-30T08:55:51;7.50;84.80
24678;DHT22;12800;53.094;8.778;2023-01-30T08:58:18;7.50;84.70
24678;DHT22;12800;53.094;8.778;2023-01-30T09:00:44;7.50;84.60
24678;DHT22;12800;53.094;8.778;2023-01-30T09:03:12;7.60;84.70
24678;DHT22;12800;53.094;8.778;2023-01-30T09:05:37;7.60;84.90
24678;DHT22;12800;53.094;8.778;2023-01-30T09:08:03;7.60;85.00
24678;DHT22;12800;53.094;8.778;2023-01-30T09:10:28;7.60;84.80
24678;DHT22;12800;53.094;8.778;2023-01-30T09:12:55;7.60;84.80
24678;DHT22;12800;53.094;8.778;2023-01-30T09:15:20;7.60;84.70
24678;DHT22;12800;53.094;8.778;2023-01-30T09:17:46;7.60;84.70
24678;DHT22;12800;53.094;8.778;2023-01-30T09:20:12;7.60;84.50
24678;DHT22;12800;53.094;8.778;2023-01-30T09:22:37;7.60;84.40
24678;DHT22;12800;53.094;8.778;2023-01-30T09:25:04;7.70;84.30
24678;DHT22;12800;53.094;8.778;2023-01-30T09:27:30;7.70;84.20
24678;DHT22;12800;53.094;8.778;2023-01-30T09:29:55;7.80;84.00
24678;DHT22;12800;53.094;8.778;2023-01-30T09:32:21;7.80;83.80
24678;DHT22;12800;53.094;8.778;2023-01-30T09:34:47;7.80;83.50
24678;DHT22;12800;53.094;8.778;2023-01-30T09:37:12;7.80;83.40
24678;DHT22;12800;53.094;8.778;2023-01-30T09:39:38;7.80;83.30
24678;DHT22;12800;53.094;8.778;2023-01-30T09:50:46;7.90;82.90
24678;DHT22;12800;53.094;8.778;2023-01-30T09:56:08;7.80;82.70
24678;DHT22;12800;53.094;8.778;2023-01-30T09:58:57;7.80;82.60
24678;DHT22;12800;53.094;8.778;2023-01-30T10:01:43;7.80;82.80
24678;DHT22;12800;53.094;8.778;2023-01-30T10:04:34;7.70;82.90
24678;DHT22;12800;53.094;8.778;2023-01-30T10:07:19;7.70;82.90
24678;DHT22;12800;53.094;8.778;2023-01-30T10:09:59;7.70;83.00
24678;DHT22;12800;53.094;8.778;2023-01-30T10:19:00;7.70;83.30
24678;DHT22;12800;53.094;8.778;2023-01-30T10:26:47;7.80;82.90
24678;DHT22;12800;53.094;8.778;2023-01-30T10:31:54;7.90;82.90
24678;DHT22;12800;53.094;8.778;2023-01-30T10:34:35;7.90;83.20
24678;DHT22;12800;53.094;8.778;2023-01-30T10:37:17;8.00;83.20
24678;DHT22;12800;53.094;8.778;2023-01-30T10:44:55;8.00;83.30
24678;DHT22;12800;53.094;8.778;2023-01-30T10:50:22;7.90;83.20
24678;DHT22;12800;53.094;8.778;2023-01-30T10:53:01;8.00;83.50
24678;DHT22;12800;53.094;8.778;2023-01-30T10:55:38;8.00;83.50
24678;DHT22;12800;53.094;8.778;2023-01-30T10:58:28;8.10;83.60
24678;DHT22;12800;53.094;8.778;2023-01-30T11:01:06;8.00;83.60
24678;DHT22;12800;53.094;8.778;2023-01-30T11:03:49;7.90;83.80
24678;DHT22;12800;53.094;8.778;2023-01-30T11:06:23;7.80;84.00
24678;DHT22;12800;53.094;8.778;2023-01-30T11:08:50;7.70;84.10
24678;DHT22;12800;53.094;8.778;2023-01-30T11:11:26;7.60;84.40
24678;DHT22;12800;53.094;8.778;2023-01-30T11:14:07;7.60;84.70
24678;DHT22;12800;53.094;8.778;2023-01-30T11:19:08;7.50;85.30
24678;DHT22;12800;53.094;8.778;2023-01-30T11:21:35;7.40;85.30
24678;DHT22;12800;53.094;8.778;2023-01-30T11:24:10;7.50;85.80
24678;DHT22;12800;53.094;8.778;2023-01-30T11:26:37;7.50;85.90
24678;DHT22;12800;53.094;8.778;2023-01-30T11:29:32;7.50;85.90
24678;DHT22;12800;53.094;8.778;2023-01-30T11:32:03;7.60;85.70
24678;DHT22;12800;53.094;8.778;2023-01-30T11:34:29;7.70;85.70
24678;DHT22;12800;53.094;8.778;2023-01-30T11:37:22;7.80;85.40
24678;DHT22;12800;53.094;8.778;2023-01-30T11:39:52;8.00;85.20
24678;DHT22;12800;53.094;8.778;2023-01-30T11:42:29;8.00;85.00
24678;DHT22;12800;53.094;8.778;2023-01-30T11:44:58;8.10;84.70
24678;DHT22;12800;53.094;8.778;2023-01-30T11:47:26;8.20;84.80
24678;DHT22;12800;53.094;8.778;2023-01-30T11:49:54;8.40;84.50
24678;DHT22;12800;53.094;8.778;2023-01-30T11:52:28;8.50;84.30
24678;DHT22;12800;53.094;8.778;2023-01-30T11:54:59;8.60;83.50
24678;DHT22;12800;53.094;8.778;2023-01-30T11:57:39;8.60;83.70
24678;DHT22;12800;53.094;8.778;2023-01-30T12:00:15;8.60;82.50
24678;DHT22;12800;53.094;8.778;2023-01-30T12:02:42;8.70;82.60
24678;DHT22;12800;53.094;8.778;2023-01-30T12:10:43;8.80;82.10
24678;DHT22;12800;53.094;8.778;2023-01-30T12:13:31;8.80;81.90
24678;DHT22;12800;53.094;8.778;2023-01-30T12:27:54;8.70;81.50
24678;DHT22;12800;53.094;8.778;2023-01-30T12:30:50;8.70;81.40
24678;DHT22;12800;53.094;8.778;2023-01-30T12:33:19;8.60;81.30
24678;DHT22;12800;53.094;8.778;2023-01-30T12:35:52;8.70;81.10
24678;DHT22;12800;53.094;8.778;2023-01-30T12:38:47;8.70;80.70
24678;DHT22;12800;53.094;8.778;2023-01-30T13:03:41;8.60;81.60
24678;DHT22;12800;53.094;8.778;2023-01-30T13:15:21;8.40;82.80
24678;DHT22;12800;53.094;8.778;2023-01-30T13:26:12;8.50;81.90
24678;DHT22;12800;53.094;8.778;2023-01-30T13:28:45;8.40;81.90
24678;DHT22;12800;53.094;8.778;2023-01-30T13:31:16;8.40;81.80
24678;DHT22;12800;53.094;8.778;2023-01-30T13:33:46;8.40;81.20
24678;DHT22;12800;53.094;8.778;2023-01-30T13:36:17;8.40;81.00
24678;DHT22;12800;53.094;8.778;2023-01-30T13:41:21;8.30;80.90
24678;DHT22;12800;53.094;8.778;2023-01-30T13:43:51;8.30;80.70
24678;DHT22;12800;53.094;8.778;2023-01-30T13:46:23;8.30;80.50
24678;DHT22;12800;53.094;8.778;2023-01-30T13:51:50;8.30;80.40
24678;DHT22;12800;53.094;8.778;2023-01-30T14:08:28;8.30;79.90
24678;DHT22;12800;53.094;8.778;2023-01-30T14:10:55;8.30;79.90
24678;DHT22;12800;53.094;8.778;2023-01-30T14:13:22;8.30;79.90
24678;DHT22;12800;53.094;8.778;2023-01-30T14:15:59;8.40;80.60
24678;DHT22;12800;53.094;8.778;2023-01-30T14:18:35;8.40;79.80
24678;DHT22;12800;53.094;8.778;2023-01-30T14:21:18;8.40;79.90
24678;DHT22;12800;53.094;8.778;2023-01-30T14:24:01;8.30;80.00
24678;DHT22;12800;53.094;8.778;2023-01-30T14:26:58;8.30;80.10
24678;DHT22;12800;53.094;8.778;2023-01-30T14:34:46;8.30;80.60
24678;DHT22;12800;53.094;8.778;2023-01-30T14:37:45;8.30;80.40
24678;DHT22;12800;53.094;8.778;2023-01-30T14:45:51;8.30;80.70
24678;DHT22;12800;53.094;8.778;2023-01-30T14:53:56;8.20;80.90
24678;DHT22;12800;53.094;8.778;2023-01-30T14:59:06;8.20;81.20
24678;DHT22;12800;53.094;8.778;2023-01-30T15:04:20;8.20;81.20
24678;DHT22;12800;53.094;8.778;2023-01-30T15:06:46;8.20;81.40
24678;DHT22;12800;53.094;8.778;2023-01-30T15:09:16;8.30;81.40
24678;DHT22;12800;53.094;8.778;2023-01-30T15:11:47;8.30;81.40
24678;DHT22;12800;53.094;8.778;2023-01-30T15:14:28;8.30;81.30
24678;DHT22;12800;53.094;8.778;2023-01-30T15:17:09;8.30;81.90
24678;DHT22;12800;53.094;8.778;2023-01-30T15:19:56;8.10;82.70
24678;DHT22;12800;53.094;8.778;2023-01-30T15:28:44;7.60;84.30
24678;DHT22;12800;53.094;8.778;2023-01-30T15:31:21;7.60;84.60
24678;DHT22;12800;53.094;8.778;2023-01-30T15:33:49;7.60;84.80
24678;DHT22;12800;53.094;8.778;2023-01-30T15:36:31;7.50;84.90
24678;DHT22;12800;53.094;8.778;2023-01-30T15:39:13;7.50;85.10
24678;DHT22;12800;53.094;8.778;2023-01-30T15:41:40;7.50;85.20
24678;DHT22;12800;53.094;8.778;2023-01-30T15:44:29;7.50;85.40
24678;DHT22;12800;53.094;8.778;2023-01-30T15:49:58;7.50;86.10
24678;DHT22;12800;53.094;8.778;2023-01-30T15:52:36;7.50;85.30
24678;DHT22;12800;53.094;8.778;2023-01-30T15:55:05;7.50;85.20
24678;DHT22;12800;53.094;8.778;2023-01-30T15:57:34;7.50;85.30
24678;DHT22;12800;53.094;8.778;2023-01-30T16:00:03;7.50;85.20
24678;DHT22;12800;53.094;8.778;2023-01-30T16:02:31;7.50;85.00
24678;DHT22;12800;53.094;8.778;2023-01-30T16:05:16;7.60;85.70
24678;DHT22;12800;53.094;8.778;2023-01-30T16:07:45;7.60;84.80
24678;DHT22;12800;53.094;8.778;2023-01-30T16:10:17;7.60;84.80
24678;DHT22;12800;53.094;8.778;2023-01-30T16:12:44;7.60;84.60
24678;DHT22;12800;53.094;8.778;2023-01-30T16:17:54;7.70;84.20
24678;DHT22;12800;53.094;8.778;2023-01-30T16:20:22;7.70;83.90
24678;DHT22;12800;53.094;8.778;2023-01-30T16:22:47;7.70;83.80
24678;DHT22;12800;53.094;8.778;2023-01-30T16:25:18;7.70;83.40
24678;DHT22;12800;53.094;8.778;2023-01-30T16:27:45;7.70;83.20
24678;DHT22;12800;53.094;8.778;2023-01-30T16:30:19;7.70;83.20
24678;DHT22;12800;53.094;8.778;2023-01-30T16:32:46;7.70;83.20
24678;DHT22;12800;53.094;8.778;2023-01-30T16:35:30;7.60;82.80
24678;DHT22;12800;53.094;8.778;2023-01-30T16:37:59;7.60;82.70
24678;DHT22;12800;53.094;8.778;2023-01-30T16:40:28;7.60;82.60
24678;DHT22;12800;53.094;8.778;2023-01-30T16:43:02;7.60;82.30
24678;DHT22;12800;53.094;8.778;2023-01-30T16:50:41;7.50;82.00
24678;DHT22;12800;53.094;8.778;2023-01-30T16:53:16;7.50;81.90
24678;DHT22;12800;53.094;8.778;2023-01-30T16:55:58;7.50;81.90
24678;DHT22;12800;53.094;8.778;2023-01-30T16:58:27;7.40;81.80
24678;DHT22;12800;53.094;8.778;2023-01-30T17:00:57;7.40;81.70
24678;DHT22;12800;53.094;8.778;2023-01-30T17:03:30;7.40;81.80
24678;DHT22;12800;53.094;8.778;2023-01-30T17:05:59;7.30;81.90
24678;DHT22;12800;53.094;8.778;2023-01-30T17:08:48;7.30;82.00
24678;DHT22;12800;53.094;8.778;2023-01-30T17:11:29;7.30;82.00
24678;DHT22;12800;53.094;8.778;2023-01-30T17:16:34;7.20;82.10
24678;DHT22;12800;53.094;8.778;2023-01-30T17:19:00;7.20;82.20
24678;DHT22;12800;53.094;8.778;2023-01-30T17:21:33;7.10;82.10
24678;DHT22;12800;53.094;8.778;2023-01-30T17:24:03;7.10;82.10
24678;DHT22;12800;53.094;8.778;2023-01-30T17:26:30;7.10;82.30
24678;DHT22;12800;53.094;8.778;2023-01-30T17:28:56;7.10;82.20
24678;DHT22;12800;53.094;8.778;2023-01-30T17:31:22;7.10;82.30
24678;DHT22;12800;53.094;8.778;2023-01-30T17:33:47;7.10;82.10
24678;DHT22;12800;53.094;8.778;2023-01-30T17:36:25;7.10;82.00
24678;DHT22;12800;53.094;8.778;2023-01-30T17:38:52;7.00;82.00
24678;DHT22;12800;53.094;8.778;2023-01-30T17:41:23;7.00;81.90
24678;DHT22;12800;53.094;8.778;2023-01-30T17:43:49;7.00;81.80
24678;DHT22;12800;53.094;8.778;2023-01-30T17:46:15;7.00;81.80
24678;DHT22;12800;53.094;8.778;2023-01-30T17:48:42;7.00;81.90
24678;DHT22;12800;53.094;8.778;2023-01-30T17:51:08;7.00;82.00
24678;DHT22;12800;53.094;8.778;2023-01-30T17:53:36;7.00;82.20
24678;DHT22;12800;53.094;8.778;2023-01-30T17:56:02;7.00;82.30
24678;DHT22;12800;53.094;8.778;2023-01-30T17:58:28;7.00;82.30
24678;DHT22;12800;53.094;8.778;2023-01-30T18:00:53;6.90;83.10
24678;DHT22;12800;53.094;8.778;2023-01-30T18:03:19;6.90;82.50
24678;DHT22;12800;53.094;8.778;2023-01-30T18:05:45;7.00;82.50
24678;DHT22;12800;53.094;8.778;2023-01-30T18:08:10;6.90;82.50
24678;DHT22;12800;53.094;8.778;2023-01-30T18:10:38;6.90;82.50
24678;DHT22;12800;53.094;8.778;2023-01-30T18:13:03;6.90;82.50
24678;DHT22;12800;53.094;8.778;2023-01-30T18:15:29;6.90;82.50
24678;DHT22;12800;53.094;8.778;2023-01-30T18:17:55;6.90;82.40
24678;DHT22;12800;53.094;8.778;2023-01-30T18:20:21;6.90;82.30
24678;DHT22;12800;53.094;8.778;2023-01-30T18:22:47;6.90;82.20
24678;DHT22;12800;53.094;8.778;2023-01-30T18:25:13;6.90;82.20
24678;DHT22;12800;53.094;8.778;2023-01-30T18:27:43;6.90;82.00
24678;DHT22;12800;53.094;8.778;2023-01-30T18:30:13;6.90;82.00
24678;DHT22;12800;53.094;8.778;2023-01-30T18:32:39;6.90;82.10
24678;DHT22;12800;53.094;8.778;2023-01-30T18:35:05;6.90;82.10
24678;DHT22;12800;53.094;8.778;2023-01-30T18:37:31;6.90;82.00
24678;DHT22;12800;53.094;8.778;2023-01-30T18:39:57;6.80;82.00
24678;DHT22;12800;53.094;8.778;2023-01-30T18:42:23;6.80;82.00
24678;DHT22;12800;53.094;8.778;2023-01-30T18:44:48;6.80;82.10
24678;DHT22;12800;53.094;8.778;2023-01-30T18:47:14;6.80;82.10
24678;DHT22;12800;53.094;8.778;2023-01-30T18:49:40;6.80;82.20
24678;DHT22;12800;53.094;8.778;2023-01-30T18:52:05;6.80;82.30
24678;DHT22;12800;53.094;8.778;2023-01-30T18:54:31;6.80;82.30
24678;DHT22;12800;53.094;8.778;2023-01-30T18:56:57;6.80;82.30
24678;DHT22;12800;53.094;8.778;2023-01-30T18:59:23;6.80;82.30
24678;DHT22;12800;53.094;8.778;2023-01-30T19:01:49;6.70;82.30
24678;DHT22;12800;53.094;8.778;2023-01-30T19:04:15;6.70;82.40
24678;DHT22;12800;53.094;8.778;2023-01-30T19:06:42;6.70;82.40
24678;DHT22;12800;53.094;8.778;2023-01-30T19:09:12;6.80;82.70